PWSweather.com
Personal Weather Stations
Station Observations
BARC54
Barcellona Pozzo Di Gotto, Barcellona Pozzo Di GottoIT

Barcellona Pozzo Di GottoBarcellona Pozzo Di GottoIT

Lat: 38.13, Lon: 15.21

Elevation: 54

Station Type: Davis Vantage Pro 2 Wireless

Latest ConditionsUpdated 12:00:06 PM GMT+01:01 Sunday, Dec 15, 2019
Currently Today's Max Today's Min Today's Average
Temperature 64.3°F17.9°C 64.5°F18.1°C 54.5°F12.5°C 58.2°F14.6°C
Dew Point 55.8°F13.2°C 56.3°F13.5°C 48.7°F9.3°C 51.7°F10.9°C
Winds Calm Calm 7.0 mph -11.3 kmh - - 1.5 mph 2.4 kmh
Wind Gusts 4.0 mph6.4 kmh 9.0 mph14.5 kmh - -
Humidity 74% 83% 74% 79%
Pressure 30.12 in1020.0 mb 30.13 in1020.3 mb 29.99 in1015.6 mb -
Hour Temp Dew Point Humidity Winds Wind Gusts Pressure Precip Precip Rate Daily Precip Total
12:00 PM 64.3°F17.9°C 55.8°F13.2°C 74% Calm Calm 4.0 mph6.4 kmh 30.12 in1020.0 mb 0.00 in0.0 mm 0.00 in0.0 mm 0.00 in0.0 mm
11:55 AM 64.1°F17.8°C 55.6°F13.1°C 74% Calm Calm 5.0 mph8.0 kmh 30.12 in1020.0 mb 0.00 in0.0 mm 0.00 in0.0 mm 0.00 in0.0 mm
11:50 AM 64.2°F17.9°C 55.7°F13.2°C 74% 1.0 mph NW1.6 kmh NW 7.0 mph11.3 kmh 30.12 in1020.0 mb 0.00 in0.0 mm 0.00 in0.0 mm 0.00 in0.0 mm
11:45 AM 64.4°F18.0°C 55.9°F13.3°C 74% 1.0 mph WNW1.6 kmh WNW 7.0 mph11.3 kmh 30.12 in1020.0 mb 0.00 in0.0 mm 0.00 in0.0 mm 0.00 in0.0 mm
11:40 AM 64.5°F18.1°C 56.3°F13.5°C 75% 3.0 mph W4.8 kmh W 6.0 mph9.7 kmh 30.12 in1020.0 mb 0.00 in0.0 mm 0.00 in0.0 mm 0.00 in0.0 mm
11:35 AM 64.4°F18.0°C 55.9°F13.3°C 74% 5.0 mph NW8.0 kmh NW 5.0 mph8.0 kmh 30.12 in1020.0 mb 0.00 in0.0 mm 0.00 in0.0 mm 0.00 in0.0 mm
11:30 AM 64.4°F18.0°C 56.2°F13.4°C 75% Calm Calm 6.0 mph9.7 kmh 30.12 in1020.0 mb 0.00 in0.0 mm 0.00 in0.0 mm 0.00 in0.0 mm
11:25 AM 64.3°F17.9°C 56.1°F13.4°C 75% 2.0 mph WNW3.2 kmh WNW 5.0 mph8.0 kmh 30.12 in1020.0 mb 0.00 in0.0 mm 0.00 in0.0 mm 0.00 in0.0 mm
11:20 AM 64.2°F17.9°C 56.1°F13.4°C 75% 2.0 mph 3.2 kmh 6.0 mph9.7 kmh 30.11 in1019.6 mb 0.00 in0.0 mm 0.00 in0.0 mm 0.00 in0.0 mm
11:15 AM 64.1°F17.8°C 56.0°F13.3°C 75% 4.0 mph NNW6.4 kmh NNW 6.0 mph9.7 kmh 30.12 in1020.0 mb 0.00 in0.0 mm 0.00 in0.0 mm 0.00 in0.0 mm
11:10 AM 63.9°F17.7°C 55.8°F13.2°C 75% 2.0 mph NNE3.2 kmh NNE 5.0 mph8.0 kmh 30.12 in1020.0 mb 0.00 in0.0 mm 0.00 in0.0 mm 0.00 in0.0 mm
11:05 AM 63.9°F17.7°C 55.8°F13.2°C 75% 4.0 mph N6.4 kmh N 5.0 mph8.0 kmh 30.12 in1020.0 mb 0.00 in0.0 mm 0.00 in0.0 mm 0.00 in0.0 mm
11:00 AM 63.9°F17.7°C 55.8°F13.2°C 75% Calm Calm 5.0 mph8.0 kmh 30.12 in1020.0 mb 0.00 in0.0 mm 0.00 in0.0 mm 0.00 in0.0 mm
10:55 AM 63.9°F17.7°C 55.8°F13.2°C 75% 1.0 mph 1.6 kmh 5.0 mph8.0 kmh 30.12 in1020.0 mb 0.00 in0.0 mm 0.00 in0.0 mm 0.00 in0.0 mm
10:50 AM 63.8°F17.7°C 56.0°F13.3°C 76% 5.0 mph NNW8.0 kmh NNW 5.0 mph8.0 kmh 30.12 in1020.0 mb 0.00 in0.0 mm 0.00 in0.0 mm 0.00 in0.0 mm
10:45 AM 63.6°F17.6°C 55.8°F13.2°C 76% 1.0 mph NNW1.6 kmh NNW 5.0 mph8.0 kmh 30.12 in1020.0 mb 0.00 in0.0 mm 0.00 in0.0 mm 0.00 in0.0 mm
10:40 AM 63.5°F17.5°C 55.4°F13.0°C 75% 2.0 mph NNW3.2 kmh NNW 3.0 mph4.8 kmh 30.13 in1020.3 mb 0.00 in0.0 mm 0.00 in0.0 mm 0.00 in0.0 mm
10:35 AM 63.3°F17.4°C 55.5°F13.1°C 76% Calm Calm 3.0 mph4.8 kmh 30.13 in1020.3 mb 0.00 in0.0 mm 0.00 in0.0 mm 0.00 in0.0 mm
10:30 AM 63.1°F17.3°C 55.4°F13.0°C 76% Calm Calm 4.0 mph6.4 kmh 30.13 in1020.3 mb 0.00 in0.0 mm 0.00 in0.0 mm 0.00 in0.0 mm
10:25 AM 63.0°F17.2°C 55.3°F12.9°C 76% Calm Calm 4.0 mph6.4 kmh 30.13 in1020.3 mb 0.00 in0.0 mm 0.00 in0.0 mm 0.00 in0.0 mm
10:20 AM 63.0°F17.2°C 55.6°F13.1°C 77% 2.0 mph NNE3.2 kmh NNE 4.0 mph6.4 kmh 30.13 in1020.3 mb 0.00 in0.0 mm 0.00 in0.0 mm 0.00 in0.0 mm
10:15 AM 62.9°F17.2°C 55.2°F12.9°C 76% 1.0 mph NE1.6 kmh NE 4.0 mph6.4 kmh 30.13 in1020.3 mb 0.00 in0.0 mm 0.00 in0.0 mm 0.00 in0.0 mm
10:10 AM 62.8°F17.1°C 55.8°F13.2°C 78% 3.0 mph NE4.8 kmh NE 4.0 mph6.4 kmh 30.13 in1020.3 mb 0.00 in0.0 mm 0.00 in0.0 mm 0.00 in0.0 mm
10:05 AM 62.6°F17.0°C 55.2°F12.9°C 77% Calm Calm 5.0 mph8.0 kmh 30.13 in1020.3 mb 0.00 in0.0 mm 0.00 in0.0 mm 0.00 in0.0 mm
10:00 AM 62.6°F17.0°C 55.2°F12.9°C 77% Calm Calm 5.0 mph8.0 kmh 30.13 in1020.3 mb 0.00 in0.0 mm 0.00 in0.0 mm 0.00 in0.0 mm
09:55 AM 62.6°F17.0°C 55.2°F12.9°C 77% 5.0 mph NE8.0 kmh NE 5.0 mph8.0 kmh 30.13 in1020.3 mb 0.00 in0.0 mm 0.00 in0.0 mm 0.00 in0.0 mm
09:50 AM 62.7°F17.1°C 55.3°F12.9°C 77% 1.0 mph NE1.6 kmh NE 3.0 mph4.8 kmh 30.13 in1020.3 mb 0.00 in0.0 mm 0.00 in0.0 mm 0.00 in0.0 mm
09:45 AM 62.8°F17.1°C 55.4°F13.0°C 77% Calm Calm 4.0 mph6.4 kmh 30.13 in1020.3 mb 0.00 in0.0 mm 0.00 in0.0 mm 0.00 in0.0 mm
09:40 AM 62.9°F17.2°C 55.5°F13.1°C 77% Calm Calm 4.0 mph6.4 kmh 30.13 in1020.3 mb 0.00 in0.0 mm 0.00 in0.0 mm 0.00 in0.0 mm
09:35 AM 62.7°F17.1°C 55.7°F13.2°C 78% Calm Calm 2.0 mph3.2 kmh 30.13 in1020.3 mb 0.00 in0.0 mm 0.00 in0.0 mm 0.00 in0.0 mm
09:30 AM 62.3°F16.8°C 55.3°F12.9°C 78% Calm Calm -- 30.13 in1020.3 mb 0.00 in0.0 mm 0.00 in0.0 mm 0.00 in0.0 mm
09:25 AM 61.6°F16.4°C 55.0°F12.8°C 79% Calm Calm -- 30.13 in1020.3 mb 0.00 in0.0 mm 0.00 in0.0 mm 0.00 in0.0 mm
09:20 AM 60.9°F16.1°C 54.6°F12.6°C 80% Calm Calm 1.0 mph1.6 kmh 30.13 in1020.3 mb 0.00 in0.0 mm 0.00 in0.0 mm 0.00 in0.0 mm
09:15 AM 60.3°F15.7°C 54.1°F12.3°C 80% Calm Calm 2.0 mph3.2 kmh 30.13 in1020.3 mb 0.00 in0.0 mm 0.00 in0.0 mm 0.00 in0.0 mm
09:10 AM 59.8°F15.4°C 53.6°F12.0°C 80% Calm Calm 1.0 mph1.6 kmh 30.13 in1020.3 mb 0.00 in0.0 mm 0.00 in0.0 mm 0.00 in0.0 mm
09:05 AM 59.3°F15.2°C 53.1°F11.7°C 80% 1.0 mph ESE1.6 kmh ESE 3.0 mph4.8 kmh 30.12 in1020.0 mb 0.00 in0.0 mm 0.00 in0.0 mm 0.00 in0.0 mm
09:00 AM 58.9°F14.9°C 52.7°F11.5°C 80% 1.0 mph ESE1.6 kmh ESE 2.0 mph3.2 kmh 30.12 in1020.0 mb 0.00 in0.0 mm 0.00 in0.0 mm 0.00 in0.0 mm
08:55 AM 58.6°F14.8°C 52.4°F11.3°C 80% Calm Calm 4.0 mph6.4 kmh 30.12 in1020.0 mb 0.00 in0.0 mm 0.00 in0.0 mm 0.00 in0.0 mm
08:50 AM 58.4°F14.7°C 52.2°F11.2°C 80% 2.0 mph ESE3.2 kmh ESE 4.0 mph6.4 kmh 30.12 in1020.0 mb 0.00 in0.0 mm 0.00 in0.0 mm 0.00 in0.0 mm
08:45 AM 58.0°F14.4°C 51.8°F11.0°C 80% 1.0 mph E1.6 kmh E 3.0 mph4.8 kmh 30.12 in1020.0 mb 0.00 in0.0 mm 0.00 in0.0 mm 0.00 in0.0 mm
08:40 AM 57.6°F14.2°C 51.8°F11.0°C 81% 1.0 mph E1.6 kmh E 2.0 mph3.2 kmh 30.12 in1020.0 mb 0.00 in0.0 mm 0.00 in0.0 mm 0.00 in0.0 mm
08:35 AM 57.2°F14.0°C 51.4°F10.8°C 81% Calm Calm 3.0 mph4.8 kmh 30.11 in1019.6 mb 0.00 in0.0 mm 0.00 in0.0 mm 0.00 in0.0 mm
08:30 AM 56.8°F13.8°C 51.3°F10.7°C 82% Calm Calm 5.0 mph8.0 kmh 30.11 in1019.6 mb 0.00 in0.0 mm 0.00 in0.0 mm 0.00 in0.0 mm
08:25 AM 56.5°F13.6°C 51.0°F10.6°C 82% 3.0 mph E4.8 kmh E 4.0 mph6.4 kmh 30.11 in1019.6 mb 0.00 in0.0 mm 0.00 in0.0 mm 0.00 in0.0 mm
08:20 AM 56.1°F13.4°C 50.6°F10.3°C 82% Calm Calm 3.0 mph4.8 kmh 30.10 in1019.3 mb 0.00 in0.0 mm 0.00 in0.0 mm 0.00 in0.0 mm
08:15 AM 55.6°F13.1°C 50.5°F10.3°C 83% 1.0 mph SE1.6 kmh SE 5.0 mph8.0 kmh 30.10 in1019.3 mb 0.00 in0.0 mm 0.00 in0.0 mm 0.00 in0.0 mm
08:10 AM 55.3°F12.9°C 49.8°F9.9°C 82% Calm Calm 8.0 mph12.9 kmh 30.10 in1019.3 mb 0.00 in0.0 mm 0.00 in0.0 mm 0.00 in0.0 mm
08:05 AM 55.1°F12.8°C 49.7°F9.8°C 82% 2.0 mph ESE3.2 kmh ESE 7.0 mph11.3 kmh 30.10 in1019.3 mb 0.00 in0.0 mm 0.00 in0.0 mm 0.00 in0.0 mm
08:00 AM 54.8°F12.7°C 49.7°F9.8°C 83% 3.0 mph E4.8 kmh E 3.0 mph4.8 kmh 30.10 in1019.3 mb 0.00 in0.0 mm 0.00 in0.0 mm 0.00 in0.0 mm
07:50 AM 54.5°F12.5°C 49.1°F9.5°C 82% Calm Calm 5.0 mph8.0 kmh 30.10 in1019.3 mb 0.00 in0.0 mm 0.00 in0.0 mm 0.00 in0.0 mm
07:45 AM 54.5°F12.5°C 49.1°F9.5°C 82% Calm Calm 3.0 mph4.8 kmh 30.10 in1019.3 mb 0.00 in0.0 mm 0.00 in0.0 mm 0.00 in0.0 mm
07:40 AM 54.5°F12.5°C 49.1°F9.5°C 82% Calm Calm 5.0 mph8.0 kmh 30.10 in1019.3 mb 0.00 in0.0 mm 0.00 in0.0 mm 0.00 in0.0 mm
07:35 AM 54.5°F12.5°C 49.1°F9.5°C 82% Calm Calm 5.0 mph8.0 kmh 30.09 in1019.0 mb 0.00 in0.0 mm 0.00 in0.0 mm 0.00 in0.0 mm
07:30 AM 54.5°F12.5°C 49.1°F9.5°C 82% 1.0 mph ESE1.6 kmh ESE 4.0 mph6.4 kmh 30.09 in1019.0 mb 0.00 in0.0 mm 0.00 in0.0 mm 0.00 in0.0 mm
07:25 AM 54.6°F12.6°C 49.2°F9.6°C 82% 3.0 mph ESE4.8 kmh ESE 6.0 mph9.7 kmh 30.09 in1019.0 mb 0.00 in0.0 mm 0.00 in0.0 mm 0.00 in0.0 mm
07:20 AM 54.6°F12.6°C 49.2°F9.6°C 82% Calm Calm 6.0 mph9.7 kmh 30.09 in1019.0 mb 0.00 in0.0 mm 0.00 in0.0 mm 0.00 in0.0 mm
07:15 AM 54.6°F12.6°C 48.8°F9.3°C 81% Calm Calm 5.0 mph8.0 kmh 30.09 in1019.0 mb 0.00 in0.0 mm 0.00 in0.0 mm 0.00 in0.0 mm
07:10 AM 54.7°F12.6°C 48.9°F9.4°C 81% 3.0 mph ESE4.8 kmh ESE 5.0 mph8.0 kmh 30.08 in1018.6 mb 0.00 in0.0 mm 0.00 in0.0 mm 0.00 in0.0 mm
07:05 AM 54.8°F12.7°C 48.7°F9.3°C 80% 2.0 mph ESE3.2 kmh ESE 5.0 mph8.0 kmh 30.08 in1018.6 mb 0.00 in0.0 mm 0.00 in0.0 mm 0.00 in0.0 mm
07:00 AM 55.0°F12.8°C 48.9°F9.4°C 80% Calm Calm 5.0 mph8.0 kmh 30.08 in1018.6 mb 0.00 in0.0 mm 0.00 in0.0 mm 0.00 in0.0 mm
06:55 AM 55.0°F12.8°C 48.9°F9.4°C 80% Calm Calm 4.0 mph6.4 kmh 30.08 in1018.6 mb 0.00 in0.0 mm 0.00 in0.0 mm 0.00 in0.0 mm
06:50 AM 55.1°F12.8°C 49.0°F9.4°C 80% 1.0 mph S1.6 kmh S 3.0 mph4.8 kmh 30.08 in1018.6 mb 0.00 in0.0 mm 0.00 in0.0 mm 0.00 in0.0 mm
06:45 AM 55.2°F12.9°C 49.1°F9.5°C 80% Calm Calm -- 30.08 in1018.6 mb 0.00 in0.0 mm 0.00 in0.0 mm 0.00 in0.0 mm
06:40 AM 55.3°F12.9°C 48.8°F9.3°C 79% Calm Calm -- 30.08 in1018.6 mb 0.00 in0.0 mm 0.00 in0.0 mm 0.00 in0.0 mm
06:35 AM 55.4°F13.0°C 48.9°F9.4°C 79% Calm Calm -- 30.08 in1018.6 mb 0.00 in0.0 mm 0.00 in0.0 mm 0.00 in0.0 mm
06:30 AM 55.5°F13.1°C 49.0°F9.4°C 79% Calm Calm 7.0 mph11.3 kmh 30.08 in1018.6 mb 0.00 in0.0 mm 0.00 in0.0 mm 0.00 in0.0 mm
06:25 AM 55.6°F13.1°C 49.1°F9.5°C 79% 2.0 mph E3.2 kmh E 7.0 mph11.3 kmh 30.07 in1018.3 mb 0.00 in0.0 mm 0.00 in0.0 mm 0.00 in0.0 mm
06:20 AM 55.7°F13.2°C 49.2°F9.6°C 79% Calm Calm 7.0 mph11.3 kmh 30.07 in1018.3 mb 0.00 in0.0 mm 0.00 in0.0 mm 0.00 in0.0 mm
06:15 AM 55.8°F13.2°C 49.0°F9.4°C 78% 3.0 mph E4.8 kmh E 7.0 mph11.3 kmh 30.07 in1018.3 mb 0.00 in0.0 mm 0.00 in0.0 mm 0.00 in0.0 mm
06:10 AM 55.9°F13.3°C 49.1°F9.5°C 78% 7.0 mph SE11.3 kmh SE 7.0 mph11.3 kmh 30.07 in1018.3 mb 0.00 in0.0 mm 0.00 in0.0 mm 0.00 in0.0 mm
06:05 AM 56.0°F13.3°C 49.2°F9.6°C 78% 2.0 mph ESE3.2 kmh ESE 4.0 mph6.4 kmh 30.07 in1018.3 mb 0.00 in0.0 mm 0.00 in0.0 mm 0.00 in0.0 mm
06:00 AM 56.2°F13.4°C 49.4°F9.7°C 78% 4.0 mph E6.4 kmh E 8.0 mph12.9 kmh 30.07 in1018.3 mb 0.00 in0.0 mm 0.00 in0.0 mm 0.00 in0.0 mm
05:55 AM 56.3°F13.5°C 49.5°F9.7°C 78% 1.0 mph ESE1.6 kmh ESE 7.0 mph11.3 kmh 30.06 in1017.9 mb 0.00 in0.0 mm 0.00 in0.0 mm 0.00 in0.0 mm
05:50 AM 56.3°F13.5°C 49.5°F9.7°C 78% 4.0 mph ESE6.4 kmh ESE 9.0 mph14.5 kmh 30.06 in1017.9 mb 0.00 in0.0 mm 0.00 in0.0 mm 0.00 in0.0 mm
05:45 AM 56.3°F13.5°C 49.5°F9.7°C 78% 2.0 mph ESE3.2 kmh ESE 7.0 mph11.3 kmh 30.06 in1017.9 mb 0.00 in0.0 mm 0.00 in0.0 mm 0.00 in0.0 mm
05:40 AM 56.2°F13.4°C 49.7°F9.8°C 79% 3.0 mph ESE4.8 kmh ESE 5.0 mph8.0 kmh 30.06 in1017.9 mb 0.00 in0.0 mm 0.00 in0.0 mm 0.00 in0.0 mm
05:35 AM 56.2°F13.4°C 49.7°F9.8°C 79% 4.0 mph ESE6.4 kmh ESE 7.0 mph11.3 kmh 30.06 in1017.9 mb 0.00 in0.0 mm 0.00 in0.0 mm 0.00 in0.0 mm
05:30 AM 56.2°F13.4°C 49.7°F9.8°C 79% 2.0 mph ESE3.2 kmh ESE 5.0 mph8.0 kmh 30.06 in1017.9 mb 0.00 in0.0 mm 0.00 in0.0 mm 0.00 in0.0 mm
05:25 AM 56.3°F13.5°C 49.8°F9.9°C 79% 1.0 mph ESE1.6 kmh ESE 7.0 mph11.3 kmh 30.06 in1017.9 mb 0.00 in0.0 mm 0.00 in0.0 mm 0.00 in0.0 mm
05:20 AM 56.4°F13.6°C 49.9°F9.9°C 79% 1.0 mph ESE1.6 kmh ESE 4.0 mph6.4 kmh 30.06 in1017.9 mb 0.00 in0.0 mm 0.00 in0.0 mm 0.00 in0.0 mm
05:15 AM 56.4°F13.6°C 49.9°F9.9°C 79% Calm Calm 4.0 mph6.4 kmh 30.05 in1017.6 mb 0.00 in0.0 mm 0.00 in0.0 mm 0.00 in0.0 mm
05:10 AM 56.3°F13.5°C 50.2°F10.1°C 80% Calm Calm 5.0 mph8.0 kmh 30.05 in1017.6 mb 0.00 in0.0 mm 0.00 in0.0 mm 0.00 in0.0 mm
05:05 AM 56.2°F13.4°C 50.1°F10.1°C 80% 2.0 mph SE3.2 kmh SE 8.0 mph12.9 kmh 30.05 in1017.6 mb 0.00 in0.0 mm 0.00 in0.0 mm 0.00 in0.0 mm
05:00 AM 56.1°F13.4°C 50.0°F10.0°C 80% 3.0 mph ESE4.8 kmh ESE 7.0 mph11.3 kmh 30.05 in1017.6 mb 0.00 in0.0 mm 0.00 in0.0 mm 0.00 in0.0 mm
04:55 AM 56.0°F13.3°C 50.2°F10.1°C 81% 2.0 mph ESE3.2 kmh ESE 9.0 mph14.5 kmh 30.05 in1017.6 mb 0.00 in0.0 mm 0.00 in0.0 mm 0.00 in0.0 mm
04:50 AM 55.9°F13.3°C 50.1°F10.1°C 81% Calm Calm 7.0 mph11.3 kmh 30.05 in1017.6 mb 0.00 in0.0 mm 0.00 in0.0 mm 0.00 in0.0 mm
04:45 AM 55.8°F13.2°C 50.0°F10.0°C 81% Calm Calm 7.0 mph11.3 kmh 30.05 in1017.6 mb 0.00 in0.0 mm 0.00 in0.0 mm 0.00 in0.0 mm
04:40 AM 55.7°F13.2°C 49.9°F9.9°C 81% 5.0 mph E8.0 kmh E 8.0 mph12.9 kmh 30.05 in1017.6 mb 0.00 in0.0 mm 0.00 in0.0 mm 0.00 in0.0 mm
04:35 AM 55.7°F13.2°C 50.2°F10.1°C 82% 1.0 mph SE1.6 kmh SE 5.0 mph8.0 kmh 30.05 in1017.6 mb 0.00 in0.0 mm 0.00 in0.0 mm 0.00 in0.0 mm
04:30 AM 55.6°F13.1°C 50.1°F10.1°C 82% 1.0 mph ESE1.6 kmh ESE 8.0 mph12.9 kmh 30.05 in1017.6 mb 0.00 in0.0 mm 0.00 in0.0 mm 0.00 in0.0 mm
04:25 AM 55.6°F13.1°C 50.1°F10.1°C 82% 5.0 mph SE8.0 kmh SE 7.0 mph11.3 kmh 30.05 in1017.6 mb 0.00 in0.0 mm 0.00 in0.0 mm 0.00 in0.0 mm
04:20 AM 55.6°F13.1°C 50.1°F10.1°C 82% 5.0 mph E8.0 kmh E 8.0 mph12.9 kmh 30.05 in1017.6 mb 0.00 in0.0 mm 0.00 in0.0 mm 0.00 in0.0 mm
04:15 AM 55.5°F13.1°C 50.0°F10.0°C 82% 3.0 mph ESE4.8 kmh ESE 7.0 mph11.3 kmh 30.05 in1017.6 mb 0.00 in0.0 mm 0.00 in0.0 mm 0.00 in0.0 mm
04:10 AM 55.6°F13.1°C 50.1°F10.1°C 82% 3.0 mph E4.8 kmh E 7.0 mph11.3 kmh 30.05 in1017.6 mb 0.00 in0.0 mm 0.00 in0.0 mm 0.00 in0.0 mm
04:05 AM 55.6°F13.1°C 50.1°F10.1°C 82% 2.0 mph E3.2 kmh E 9.0 mph14.5 kmh 30.05 in1017.6 mb 0.00 in0.0 mm 0.00 in0.0 mm 0.00 in0.0 mm
04:00 AM 55.6°F13.1°C 50.1°F10.1°C 82% 2.0 mph ESE3.2 kmh ESE 8.0 mph12.9 kmh 30.05 in1017.6 mb 0.00 in0.0 mm 0.00 in0.0 mm 0.00 in0.0 mm
03:55 AM 55.5°F13.1°C 50.0°F10.0°C 82% 4.0 mph ESE6.4 kmh ESE 7.0 mph11.3 kmh 30.04 in1017.3 mb 0.00 in0.0 mm 0.00 in0.0 mm 0.00 in0.0 mm
03:50 AM 55.5°F13.1°C 50.0°F10.0°C 82% 1.0 mph ESE1.6 kmh ESE 8.0 mph12.9 kmh 30.04 in1017.3 mb 0.00 in0.0 mm 0.00 in0.0 mm 0.00 in0.0 mm
03:45 AM 55.4°F13.0°C 49.9°F9.9°C 82% Calm Calm 5.0 mph8.0 kmh 30.04 in1017.3 mb 0.00 in0.0 mm 0.00 in0.0 mm 0.00 in0.0 mm
03:40 AM 55.4°F13.0°C 49.9°F9.9°C 82% 1.0 mph ESE1.6 kmh ESE 7.0 mph11.3 kmh 30.04 in1017.3 mb 0.00 in0.0 mm 0.00 in0.0 mm 0.00 in0.0 mm
03:35 AM 55.4°F13.0°C 49.9°F9.9°C 82% 3.0 mph ESE4.8 kmh ESE 5.0 mph8.0 kmh 30.05 in1017.6 mb 0.00 in0.0 mm 0.00 in0.0 mm 0.00 in0.0 mm
03:30 AM 55.4°F13.0°C 49.9°F9.9°C 82% 2.0 mph E3.2 kmh E 7.0 mph11.3 kmh 30.05 in1017.6 mb 0.00 in0.0 mm 0.00 in0.0 mm 0.00 in0.0 mm
03:25 AM 55.4°F13.0°C 49.9°F9.9°C 82% 3.0 mph ESE4.8 kmh ESE 5.0 mph8.0 kmh 30.04 in1017.3 mb 0.00 in0.0 mm 0.00 in0.0 mm 0.00 in0.0 mm
03:20 AM 55.4°F13.0°C 49.9°F9.9°C 82% 1.0 mph ESE1.6 kmh ESE 4.0 mph6.4 kmh 30.04 in1017.3 mb 0.00 in0.0 mm 0.00 in0.0 mm 0.00 in0.0 mm
03:15 AM 55.5°F13.1°C 50.0°F10.0°C 82% 1.0 mph E1.6 kmh E 4.0 mph6.4 kmh 30.04 in1017.3 mb 0.00 in0.0 mm 0.00 in0.0 mm 0.00 in0.0 mm
03:10 AM 55.5°F13.1°C 50.0°F10.0°C 82% 3.0 mph ESE4.8 kmh ESE 5.0 mph8.0 kmh 30.04 in1017.3 mb 0.00 in0.0 mm 0.00 in0.0 mm 0.00 in0.0 mm
03:05 AM 55.5°F13.1°C 50.0°F10.0°C 82% 5.0 mph SE8.0 kmh SE 8.0 mph12.9 kmh 30.04 in1017.3 mb 0.00 in0.0 mm 0.00 in0.0 mm 0.00 in0.0 mm
03:00 AM 55.5°F13.1°C 50.4°F10.2°C 83% 2.0 mph ESE3.2 kmh ESE 6.0 mph9.7 kmh 30.04 in1017.3 mb 0.00 in0.0 mm 0.00 in0.0 mm 0.00 in0.0 mm
02:55 AM 55.7°F13.2°C 50.2°F10.1°C 82% Calm Calm 5.0 mph8.0 kmh 30.04 in1017.3 mb 0.00 in0.0 mm 0.00 in0.0 mm 0.00 in0.0 mm
02:50 AM 55.8°F13.2°C 50.3°F10.2°C 82% 1.0 mph ESE1.6 kmh ESE 8.0 mph12.9 kmh 30.04 in1017.3 mb 0.00 in0.0 mm 0.00 in0.0 mm 0.00 in0.0 mm
02:45 AM 55.9°F13.3°C 50.4°F10.2°C 82% 1.0 mph E1.6 kmh E 4.0 mph6.4 kmh 30.03 in1016.9 mb 0.00 in0.0 mm 0.00 in0.0 mm 0.00 in0.0 mm
02:40 AM 56.0°F13.3°C 50.5°F10.3°C 82% Calm Calm 4.0 mph6.4 kmh 30.03 in1016.9 mb 0.00 in0.0 mm 0.00 in0.0 mm 0.00 in0.0 mm
02:35 AM 56.2°F13.4°C 50.7°F10.4°C 82% 1.0 mph E1.6 kmh E 3.0 mph4.8 kmh 30.03 in1016.9 mb 0.00 in0.0 mm 0.00 in0.0 mm 0.00 in0.0 mm
02:25 AM 56.4°F13.6°C 50.9°F10.5°C 82% 3.0 mph E4.8 kmh E 5.0 mph8.0 kmh 30.03 in1016.9 mb 0.00 in0.0 mm 0.00 in0.0 mm 0.00 in0.0 mm
02:20 AM 56.5°F13.6°C 51.0°F10.6°C 82% 3.0 mph E4.8 kmh E 5.0 mph8.0 kmh 30.02 in1016.6 mb 0.00 in0.0 mm 0.00 in0.0 mm 0.00 in0.0 mm
02:15 AM 56.6°F13.7°C 50.8°F10.4°C 81% 1.0 mph E1.6 kmh E 6.0 mph9.7 kmh 30.02 in1016.6 mb 0.00 in0.0 mm 0.00 in0.0 mm 0.00 in0.0 mm
02:10 AM 56.7°F13.7°C 50.9°F10.5°C 81% 3.0 mph E4.8 kmh E 6.0 mph9.7 kmh 30.03 in1016.9 mb 0.00 in0.0 mm 0.00 in0.0 mm 0.00 in0.0 mm
02:05 AM 56.9°F13.8°C 51.1°F10.6°C 81% 3.0 mph E4.8 kmh E 5.0 mph8.0 kmh 30.02 in1016.6 mb 0.00 in0.0 mm 0.00 in0.0 mm 0.00 in0.0 mm
02:00 AM 57.1°F13.9°C 50.9°F10.5°C 80% 1.0 mph E1.6 kmh E 6.0 mph9.7 kmh 30.02 in1016.6 mb 0.00 in0.0 mm 0.00 in0.0 mm 0.00 in0.0 mm
01:55 AM 57.3°F14.1°C 51.1°F10.6°C 80% 2.0 mph E3.2 kmh E 3.0 mph4.8 kmh 30.02 in1016.6 mb 0.00 in0.0 mm 0.00 in0.0 mm 0.00 in0.0 mm
01:50 AM 57.5°F14.2°C 51.3°F10.7°C 80% Calm Calm 5.0 mph8.0 kmh 30.02 in1016.6 mb 0.00 in0.0 mm 0.00 in0.0 mm 0.00 in0.0 mm
01:45 AM 57.6°F14.2°C 51.4°F10.8°C 80% 1.0 mph E1.6 kmh E 4.0 mph6.4 kmh 30.01 in1016.3 mb 0.00 in0.0 mm 0.00 in0.0 mm 0.00 in0.0 mm
01:40 AM 57.7°F14.3°C 51.5°F10.8°C 80% 1.0 mph E1.6 kmh E 5.0 mph8.0 kmh 30.01 in1016.3 mb 0.00 in0.0 mm 0.00 in0.0 mm 0.00 in0.0 mm
01:35 AM 57.8°F14.3°C 51.3°F10.7°C 79% 3.0 mph E4.8 kmh E 6.0 mph9.7 kmh 30.01 in1016.3 mb 0.00 in0.0 mm 0.00 in0.0 mm 0.00 in0.0 mm
01:30 AM 57.9°F14.4°C 51.7°F10.9°C 80% 2.0 mph E3.2 kmh E 7.0 mph11.3 kmh 30.01 in1016.3 mb 0.00 in0.0 mm 0.00 in0.0 mm 0.00 in0.0 mm
01:25 AM 58.0°F14.4°C 51.5°F10.8°C 79% 5.0 mph E8.0 kmh E 8.0 mph12.9 kmh 30.00 in1015.9 mb 0.00 in0.0 mm 0.00 in0.0 mm 0.00 in0.0 mm
01:20 AM 58.2°F14.6°C 51.3°F10.7°C 78% Calm Calm 6.0 mph9.7 kmh 30.00 in1015.9 mb 0.00 in0.0 mm 0.00 in0.0 mm 0.00 in0.0 mm
01:15 AM 58.5°F14.7°C 51.6°F10.9°C 78% 1.0 mph ESE1.6 kmh ESE 3.0 mph4.8 kmh 30.00 in1015.9 mb 0.00 in0.0 mm 0.00 in0.0 mm 0.00 in0.0 mm
01:10 AM 58.6°F14.8°C 51.7°F10.9°C 78% 2.0 mph ESE3.2 kmh ESE 3.0 mph4.8 kmh 30.00 in1015.9 mb 0.00 in0.0 mm 0.00 in0.0 mm 0.00 in0.0 mm
01:05 AM 58.6°F14.8°C 51.7°F10.9°C 78% Calm Calm 4.0 mph6.4 kmh 30.00 in1015.9 mb 0.00 in0.0 mm 0.00 in0.0 mm 0.00 in0.0 mm
01:00 AM 58.7°F14.8°C 51.8°F11.0°C 78% 3.0 mph ESE4.8 kmh ESE 5.0 mph8.0 kmh 30.00 in1015.9 mb 0.00 in0.0 mm 0.00 in0.0 mm 0.00 in0.0 mm
12:55 AM 59.0°F15.0°C 51.7°F10.9°C 77% 2.0 mph ESE3.2 kmh ESE 5.0 mph8.0 kmh 30.00 in1015.9 mb 0.00 in0.0 mm 0.00 in0.0 mm 0.00 in0.0 mm
12:50 AM 59.2°F15.1°C 51.9°F11.1°C 77% 1.0 mph E1.6 kmh E 4.0 mph6.4 kmh 30.00 in1015.9 mb 0.00 in0.0 mm 0.00 in0.0 mm 0.00 in0.0 mm
12:45 AM 59.3°F15.2°C 52.0°F11.1°C 77% 1.0 mph SE1.6 kmh SE 2.0 mph3.2 kmh 30.00 in1015.9 mb 0.00 in0.0 mm 0.00 in0.0 mm 0.00 in0.0 mm
12:40 AM 59.3°F15.2°C 51.7°F10.9°C 76% Calm Calm 5.0 mph8.0 kmh 29.99 in1015.6 mb 0.00 in0.0 mm 0.00 in0.0 mm 0.00 in0.0 mm
12:35 AM 59.6°F15.3°C 52.0°F11.1°C 76% 1.0 mph ESE1.6 kmh ESE 5.0 mph8.0 kmh 29.99 in1015.6 mb 0.00 in0.0 mm 0.00 in0.0 mm 0.00 in0.0 mm
12:30 AM 60.0°F15.6°C 52.0°F11.1°C 75% 4.0 mph E6.4 kmh E 6.0 mph9.7 kmh 29.99 in1015.6 mb 0.00 in0.0 mm 0.00 in0.0 mm 0.00 in0.0 mm
12:25 AM 60.3°F15.7°C 52.3°F11.3°C 75% Calm Calm 5.0 mph8.0 kmh 29.99 in1015.6 mb 0.00 in0.0 mm 0.00 in0.0 mm 0.00 in0.0 mm
12:20 AM 60.6°F15.9°C 52.6°F11.4°C 75% 3.0 mph SW4.8 kmh SW 3.0 mph4.8 kmh 29.99 in1015.6 mb 0.00 in0.0 mm 0.00 in0.0 mm 0.00 in0.0 mm
12:15 AM 60.8°F16.0°C 52.4°F11.3°C 74% Calm Calm 4.0 mph6.4 kmh 29.99 in1015.6 mb 0.00 in0.0 mm 0.00 in0.0 mm 0.00 in0.0 mm
12:10 AM 60.8°F16.0°C 52.4°F11.3°C 74% 3.0 mph SW4.8 kmh SW 5.0 mph8.0 kmh 29.99 in1015.6 mb 0.00 in0.0 mm 0.00 in0.0 mm 0.00 in0.0 mm
12:05 AM 60.9°F16.1°C 52.5°F11.4°C 74% 2.0 mph WSW3.2 kmh WSW 7.0 mph11.3 kmh 29.99 in1015.6 mb 0.00 in0.0 mm 0.00 in0.0 mm 0.00 in0.0 mm
12:00 AM 60.9°F16.1°C 52.5°F11.4°C 74% Calm Calm 7.0 mph11.3 kmh 29.99 in1015.6 mb 0.00 in0.0 mm 0.00 in0.0 mm 0.12 in3.0 mm